メインページ
METAR-TAF:

METAR-TAF

空港 :

シアトル / タコマ, ワシントン, アメリカ合衆国

シアトル・タコマ国際空港

緯度: 47-26-41N, 経度: 122-18-49W, 海抜: 130m

現時点の気象観測

当レポートは43分前の15:53(UTC)に作成
南/南東の風 4kt
気温 15°C
湿度 88%
気圧 1015 hPa
視程: 16.1km
高度3700ftの千切れ雲あり
高度4600ftの千切れ雲あり

METAR: KSEA 221553Z 16004KT 10SM BKN037 BKN046 15/13 A2997 RMK AO2 RAB26E35 SLP153 P0000 T01500133

時間: 08:36 (16:36 UTC)

予報

当レポートは2時間38分前の13:58(UTC)に作成
予報は22日の 14時(UTC)から 23日の 18時(UTC)まで有効
の風 6kt
視程: 10km
高度3500ftの千切れ雲あり
高度4500ftの曇り
22日の 14時(UTC)から 22日の 18時(UTC)まで一時的に
視程: 8.0km
高度2500ftの千切れ雲あり
高度3500ftの曇り
弱いにわか雨, 靄
22日の 2100時(UTC)から
の風 10kt
視程: 10km
高度2500ftの雲は散在している
高度4000ftの曇り
弱いにわか雨
23日の 0500時(UTC)から
の風 13kt
視程: 8.0km
高度1500ftの千切れ雲あり
高度3000ftの曇り
弱いにわか雨

TAF: KSEA 221358Z 2214/2318 17006KT P6SM BKN035 OVC045 TEMPO 2214/2218 5SM -SHRA BR BKN025 OVC035 FM222100 18010KT P6SM -SHRA SCT025 OVC040 FM230500 19013KT 5SM -SHRA BKN015 OVC030

4,000以上の空港の気象観測と天気予報(METAR報とTAF報)

利用可能な観測所は地図上に黄色い丸と赤い丸で示す。

丸の上にカーソルを重ねると観測所名を参照できる。

次にクリックすると気象観測と天気予報を参照できる。

マップの切り替え:黒色「×」印の緑ボタンをクリックして拡大、「-」印の緑ボタンをクリックして縮小、緑色の三角印をクリックして隣りの地図に切り替え


METAR-TAF: